Bei Facebook empfehlenBei Twitter postenGoogle plusPinterest

Das Wetter im Erzgebirge am 29.05.2016

Wetter und Klima am 29.05.2016 Holzhau im Erzgebirge (630m ü.NN)
Letzte gemessene Temperatur und Uhrzeit der Messung23:45:00 Uhr16.80 °C
Temperatur (Maximum / Höchstwert) und Uhrzeit der Messung14:30:00 Uhr24.40 °C
Temperatur (Minimum / Tiefstwert) und Uhrzeit der Messung04:00:0012.60 °C
Errechneter Absolutwert der Temperaturschwankungen zwischen Tmin und Tmax des Tages11.80 K
Errechnete Tagesmitteltemperatur18.70000 °C
Gesamt - Niederschlag des Tages (in flüssiger Form)0.00 Liter / m²
Luftdruck (Maximum / Höchstwert) und Zeitpunkt der Messung00:00:00 Uhr1008.60 hPa
Luftdruck (Minimum / Tiefstwert) und Zeitpunkt der Messung22:00:00 Uhr1002.50 hPa
Errechneter Absolutwert der Luftdruckschwankungen des Tages6.10 hPa
Höchste gemessene Windgeschwindigkeit und Uhrzeit der Messung23:45:00 Uhr183.60 km/h
Errechnete Windhäufigkeit in Relation zu den Messwerten des Tages51.04167 %
Niedrigste Windkühle (Windchill) und Zeitpunkt der Messung22:45:00 Uhr11.00 °C
Taupunkt (Maximum / Höchstwert) und Uhrzeit der Messung14:15:00 Uhr18.60 °C
Taupunkt (Minimum / Tiefstwert) und Uhrzeit der Messung04:00:0011.30 °C
Anzahl der automatisch eingelesenen Messwerte 96

Detaillierte Wetter- und Klima- Messwerte für den 29.05.2016 in Holzhau im Erzgebirge (630m ü.NN)
ZeitTemperaturLuftdruckRel. LuftfeuchteWindWindrichtungWindchillTaupunktNiederschlag l/m²
23:45:0016.80 °C1002.80 hPa90.00 %183.60 km/hSSO12.70 °C15.20 °C 
23:30:0016.90 °C1002.70 hPa90.00 %183.60 km/hSSO12.90 °C15.20 °C 
23:15:0016.60 °C1002.60 hPa90.00 %183.60 km/hSSO12.40 °C15.00 °C 
23:00:0015.80 °C1002.70 hPa89.00 %183.60 km/hSSO11.20 °C14.00 °C 
22:45:0015.70 °C1003.20 hPa88.00 %183.60 km/hSSO11.00 °C13.70 °C 
22:30:0015.80 °C1003.30 hPa88.00 %183.60 km/hSSO11.20 °C13.80 °C 
22:15:0015.90 °C1003.20 hPa87.00 %183.60 km/hSSO11.30 °C13.70 °C 
22:00:0016.30 °C1002.50 hPa86.00 %183.60 km/hSSO12.00 °C14.00 °C 
21:45:0016.80 °C1002.60 hPa85.00 %183.60 km/hSSO12.70 °C14.30 °C 
21:30:0017.30 °C1002.80 hPa84.00 %183.60 km/hSSO13.50 °C14.60 °C 
21:15:0017.90 °C1003.00 hPa82.00 %183.60 km/hSSO14.40 °C14.80 °C 
21:00:0018.40 °C1003.20 hPa80.00 %183.60 km/hSSO15.20 °C14.90 °C 
20:45:0019.30 °C1003.20 hPa79.00 %183.60 km/hSSO16.60 °C15.60 °C 
20:30:0020.10 °C1003.10 hPa77.00 %183.60 km/hSSO17.80 °C15.90 °C 
20:15:0020.60 °C1003.10 hPa75.00 %183.60 km/hSSO18.50 °C16.00 °C 
20:00:0021.20 °C1003.40 hPa73.00 %183.60 km/hSSO19.50 °C16.20 °C 
19:45:0021.80 °C1003.50 hPa72.00 %183.60 km/hSSO20.40 °C16.50 °C 
19:30:0022.40 °C1003.70 hPa70.00 %183.60 km/hSSO21.30 °C16.70 °C 
19:15:0022.90 °C1004.00 hPa69.00 %183.60 km/hSSO22.10 °C16.90 °C 
19:00:0023.10 °C1004.10 hPa70.00 %183.60 km/hSSO22.40 °C17.30 °C 
18:45:0023.10 °C1003.90 hPa70.00 %183.60 km/hSSO22.40 °C17.30 °C 
18:30:0023.10 °C1003.70 hPa70.00 %183.60 km/hSSO22.40 °C17.30 °C 
18:15:0023.10 °C1003.70 hPa70.00 %183.60 km/hSSO22.40 °C17.30 °C 
18:00:0023.10 °C1003.80 hPa70.00 %183.60 km/hSSO22.40 °C17.30 °C 
17:45:0023.10 °C1004.10 hPa71.00 %183.60 km/hSSO22.40 °C17.60 °C 
17:30:0022.60 °C1004.30 hPa71.00 %183.60 km/hSSO21.60 °C17.10 °C 
17:15:0022.90 °C1004.20 hPa69.00 %183.60 km/hSSO22.10 °C16.90 °C 
17:00:0023.40 °C1004.20 hPa69.00 %183.60 km/hSSO22.80 °C17.40 °C 
16:45:0024.10 °C1004.40 hPa69.00 %183.60 km/hSSO23.90 °C18.10 °C 
16:30:0023.60 °C1004.60 hPa69.00 %183.60 km/hSSO23.20 °C17.60 °C 
16:15:0023.40 °C1004.60 hPa68.00 %183.60 km/hSSO22.80 °C17.20 °C 
16:00:0024.10 °C1004.80 hPa69.00 %183.60 km/hSSO23.90 °C18.10 °C 
15:45:0023.60 °C1005.20 hPa70.00 %183.60 km/hSSO23.20 °C17.80 °C 
15:30:0023.60 °C1005.00 hPa68.00 %183.60 km/hSSO23.20 °C17.30 °C 
15:15:0023.60 °C1004.90 hPa70.00 %183.60 km/hSSO23.20 °C17.80 °C 
15:00:0023.00 °C1005.20 hPa70.00 %183.60 km/hSSO22.20 °C17.20 °C 
14:45:0023.60 °C1005.30 hPa68.00 %183.60 km/hSSO23.20 °C17.30 °C 
14:30:0024.40 °C1005.30 hPa68.00 %183.60 km/hSSO24.40 °C18.10 °C 
14:15:0024.40 °C1005.20 hPa70.00 %183.60 km/hSSO24.40 °C18.60 °C 
14:00:0023.90 °C1005.10 hPa71.00 %183.60 km/hSSO23.60 °C18.30 °C 
13:45:0023.60 °C1005.30 hPa72.00 %183.60 km/hSSO23.20 °C18.30 °C 
13:30:0023.30 °C1005.40 hPa72.00 %183.60 km/hSSO22.70 °C18.00 °C 
13:15:0023.10 °C1005.40 hPa73.00 %183.60 km/hSSO22.40 °C18.00 °C 
13:00:0022.50 °C1005.60 hPa73.00 %183.60 km/hSSO21.50 °C17.40 °C 
12:45:0022.40 °C1005.50 hPa73.00 %183.60 km/hSSO21.30 °C17.30 °C 
12:30:0022.30 °C1005.30 hPa76.00 %183.60 km/hSSO21.20 °C17.90 °C 
12:15:0022.10 °C1005.30 hPa75.00 %183.60 km/hSSO20.90 °C17.50 °C 
12:00:0021.30 °C1005.30 hPa77.00 %183.60 km/hSSO19.60 °C17.10 °C 
11:45:0021.10 °C1005.50 hPa77.00 %183.60 km/hSSO19.30 °C16.90 °C 
11:30:0021.10 °C1005.80 hPa76.00 %16.70 °C 
11:15:0021.50 °C1005.90 hPa75.00 %16.90 °C 
11:00:0021.60 °C1006.00 hPa77.00 %17.40 °C 
10:45:0020.90 °C1006.20 hPa78.00 %16.90 °C 
10:30:0020.40 °C1006.20 hPa80.00 %16.80 °C 
10:15:0019.60 °C1006.00 hPa81.00 %16.30 °C 
10:00:0019.20 °C1006.30 hPa80.00 %15.70 °C 
09:45:0019.90 °C1006.00 hPa80.00 %16.30 °C 
09:30:0020.10 °C1006.10 hPa81.00 %16.70 °C 
09:15:0020.20 °C1005.80 hPa81.00 %16.80 °C 
09:00:0020.20 °C1005.80 hPa81.00 %16.80 °C 
08:45:0020.10 °C1005.80 hPa82.00 %16.90 °C 
08:30:0020.30 °C1005.80 hPa84.00 %17.50 °C 
08:15:0019.80 °C1005.60 hPa85.00 %17.20 °C 
08:00:0019.60 °C1005.40 hPa88.00 %17.60 °C 
07:45:0019.30 °C1005.60 hPa90.00 %17.60 °C 
07:30:0018.20 °C1005.50 hPa93.00 %17.00 °C 
07:15:0016.30 °C1005.70 hPa94.00 %15.30 °C 
07:00:0014.30 °C1005.80 hPa94.00 %13.30 °C 
06:45:0014.10 °C1005.90 hPa94.00 %13.10 °C 
06:30:0013.80 °C1005.90 hPa94.00 %12.90 °C 
06:15:0013.40 °C1006.20 hPa93.00 %12.30 °C 
06:00:0012.80 °C1006.20 hPa93.00 %11.70 °C 
05:45:0012.70 °C1006.20 hPa93.00 %11.60 °C 
05:30:0012.90 °C1006.30 hPa93.00 %11.80 °C 
05:15:0013.00 °C1006.30 hPa93.00 %11.90 °C 
05:00:0013.00 °C1006.70 hPa93.00 %11.90 °C 
04:45:0013.00 °C1006.70 hPa93.00 %11.90 °C 
04:30:0013.00 °C1006.70 hPa92.00 %11.70 °C 
04:15:0012.90 °C1007.00 hPa92.00 %11.60 °C 
04:00:0012.60 °C1007.10 hPa92.00 %11.30 °C 
03:45:0012.90 °C1007.20 hPa91.00 %11.50 °C 
03:30:0013.00 °C1007.00 hPa91.00 %11.60 °C 
03:15:0013.30 °C1007.00 hPa91.00 %11.90 °C 
03:00:0013.60 °C1007.20 hPa91.00 %12.20 °C 
02:45:0013.80 °C1007.40 hPa91.00 %12.40 °C 
02:30:0013.90 °C1007.50 hPa91.00 %12.50 °C 
02:15:0013.80 °C1007.70 hPa91.00 %12.40 °C 
02:00:0013.90 °C1007.60 hPa90.00 %12.30 °C 
01:45:0014.40 °C1008.00 hPa91.00 %13.00 °C 
01:30:0014.40 °C1008.20 hPa91.00 %13.00 °C 
01:15:0014.30 °C1008.10 hPa91.00 %12.90 °C 
01:00:0014.30 °C1008.10 hPa90.00 %12.70 °C 
00:45:0014.30 °C1008.30 hPa90.00 %12.70 °C 
00:30:0014.10 °C1008.40 hPa90.00 %12.50 °C 
00:15:0014.10 °C1008.30 hPa90.00 %12.50 °C 
00:00:0014.30 °C1008.60 hPa89.00 %12.50 °C 

Permanenter Link zu dieser Seite: Wetter im Erzgebirge am 29.05.2016
Performance-Info: Die Erstellung der Seite / Statistik(en) / Tabelle(n) erforderte 5 Datenbankserver-Abfrage(n) und dauerte 96 Millisekunden. (Dieser Messwert ist von der Gesamt-Auslastung des Servers abhängig.)
Erzgebirge - Wetter | Erzgebirge - Wetter (Mobilgeräte) | Komplette Klimadatenbank